sensor_id;sensor_type;location;lat;lon;timestamp;P1;durP1;ratioP1;P2;durP2;ratioP2
21426;SDS011;10874;49.452;11.050;2024-02-21T00:00:12;7.97;;;3.93;;
21426;SDS011;10874;49.452;11.050;2024-02-21T00:02:39;9.33;;;3.87;;
21426;SDS011;10874;49.452;11.050;2024-02-21T00:05:06;6.77;;;3.90;;
21426;SDS011;10874;49.452;11.050;2024-02-21T00:07:34;9.17;;;4.30;;
21426;SDS011;10874;49.452;11.050;2024-02-21T00:10:00;8.50;;;3.83;;
21426;SDS011;10874;49.452;11.050;2024-02-21T00:12:28;12.30;;;4.03;;
21426;SDS011;10874;49.452;11.050;2024-02-21T00:14:55;8.90;;;4.20;;
21426;SDS011;10874;49.452;11.050;2024-02-21T00:17:22;11.47;;;4.40;;
21426;SDS011;10874;49.452;11.050;2024-02-21T00:19:49;8.33;;;3.67;;
21426;SDS011;10874;49.452;11.050;2024-02-21T00:22:15;9.97;;;4.60;;
21426;SDS011;10874;49.452;11.050;2024-02-21T00:24:42;8.47;;;3.93;;
21426;SDS011;10874;49.452;11.050;2024-02-21T00:27:09;7.00;;;4.00;;
21426;SDS011;10874;49.452;11.050;2024-02-21T00:29:35;9.97;;;4.43;;
21426;SDS011;10874;49.452;11.050;2024-02-21T00:32:02;13.70;;;4.60;;
21426;SDS011;10874;49.452;11.050;2024-02-21T00:34:29;10.40;;;3.47;;
21426;SDS011;10874;49.452;11.050;2024-02-21T00:36:56;9.17;;;3.80;;
21426;SDS011;10874;49.452;11.050;2024-02-21T00:39:23;8.90;;;4.50;;
21426;SDS011;10874;49.452;11.050;2024-02-21T00:41:50;7.43;;;3.97;;
21426;SDS011;10874;49.452;11.050;2024-02-21T00:44:17;9.03;;;3.93;;
21426;SDS011;10874;49.452;11.050;2024-02-21T00:46:44;11.20;;;4.27;;
21426;SDS011;10874;49.452;11.050;2024-02-21T00:49:11;8.83;;;3.80;;
21426;SDS011;10874;49.452;11.050;2024-02-21T00:51:37;10.27;;;4.70;;
21426;SDS011;10874;49.452;11.050;2024-02-21T00:54:04;10.47;;;3.70;;
21426;SDS011;10874;49.452;11.050;2024-02-21T00:56:31;9.13;;;3.93;;
21426;SDS011;10874;49.452;11.050;2024-02-21T00:58:57;12.07;;;4.33;;
21426;SDS011;10874;49.452;11.050;2024-02-21T01:01:25;6.03;;;3.80;;
21426;SDS011;10874;49.452;11.050;2024-02-21T01:03:52;8.87;;;4.00;;
21426;SDS011;10874;49.452;11.050;2024-02-21T01:06:20;9.00;;;3.80;;
21426;SDS011;10874;49.452;11.050;2024-02-21T01:08:47;7.60;;;3.70;;
21426;SDS011;10874;49.452;11.050;2024-02-21T01:11:14;7.37;;;3.63;;
21426;SDS011;10874;49.452;11.050;2024-02-21T01:13:41;7.50;;;3.77;;
21426;SDS011;10874;49.452;11.050;2024-02-21T01:16:08;10.33;;;3.97;;
21426;SDS011;10874;49.452;11.050;2024-02-21T01:18:37;7.23;;;3.70;;
21426;SDS011;10874;49.452;11.050;2024-02-21T01:21:04;9.87;;;3.83;;
21426;SDS011;10874;49.452;11.050;2024-02-21T01:23:34;9.27;;;3.83;;
21426;SDS011;10874;49.452;11.050;2024-02-21T01:26:00;13.73;;;4.40;;
21426;SDS011;10874;49.452;11.050;2024-02-21T01:28:27;10.57;;;4.03;;
21426;SDS011;10874;49.452;11.050;2024-02-21T01:30:54;9.10;;;4.30;;
21426;SDS011;10874;49.452;11.050;2024-02-21T01:33:21;10.47;;;3.63;;
21426;SDS011;10874;49.452;11.050;2024-02-21T01:35:48;6.00;;;3.43;;
21426;SDS011;10874;49.452;11.050;2024-02-21T01:38:16;7.27;;;3.53;;
21426;SDS011;10874;49.452;11.050;2024-02-21T01:40:43;10.60;;;3.93;;
21426;SDS011;10874;49.452;11.050;2024-02-21T01:43:16;7.00;;;3.60;;
21426;SDS011;10874;49.452;11.050;2024-02-21T01:45:46;8.87;;;3.50;;
21426;SDS011;10874;49.452;11.050;2024-02-21T01:48:13;9.63;;;4.17;;
21426;SDS011;10874;49.452;11.050;2024-02-21T01:50:40;9.10;;;3.73;;
21426;SDS011;10874;49.452;11.050;2024-02-21T01:53:07;9.97;;;4.07;;
21426;SDS011;10874;49.452;11.050;2024-02-21T01:55:34;7.67;;;3.93;;
21426;SDS011;10874;49.452;11.050;2024-02-21T01:58:01;6.37;;;3.90;;
21426;SDS011;10874;49.452;11.050;2024-02-21T02:00:28;8.33;;;3.93;;
21426;SDS011;10874;49.452;11.050;2024-02-21T02:02:55;8.67;;;3.37;;
21426;SDS011;10874;49.452;11.050;2024-02-21T02:05:22;8.00;;;3.93;;
21426;SDS011;10874;49.452;11.050;2024-02-21T02:07:50;9.20;;;3.40;;
21426;SDS011;10874;49.452;11.050;2024-02-21T02:10:16;8.67;;;3.67;;
21426;SDS011;10874;49.452;11.050;2024-02-21T02:12:43;10.03;;;4.43;;
21426;SDS011;10874;49.452;11.050;2024-02-21T02:15:10;11.03;;;3.80;;
21426;SDS011;10874;49.452;11.050;2024-02-21T02:17:37;11.03;;;3.77;;
21426;SDS011;10874;49.452;11.050;2024-02-21T02:20:04;9.57;;;4.13;;
21426;SDS011;10874;49.452;11.050;2024-02-21T02:22:32;10.00;;;3.93;;
21426;SDS011;10874;49.452;11.050;2024-02-21T02:25:00;13.63;;;4.53;;
21426;SDS011;10874;49.452;11.050;2024-02-21T02:27:27;7.07;;;3.80;;
21426;SDS011;10874;49.452;11.050;2024-02-21T02:29:54;5.63;;;3.67;;
21426;SDS011;10874;49.452;11.050;2024-02-21T02:32:20;6.90;;;3.57;;
21426;SDS011;10874;49.452;11.050;2024-02-21T02:34:47;10.27;;;4.50;;
21426;SDS011;10874;49.452;11.050;2024-02-21T02:37:14;13.67;;;4.17;;
21426;SDS011;10874;49.452;11.050;2024-02-21T02:39:41;6.50;;;3.77;;
21426;SDS011;10874;49.452;11.050;2024-02-21T02:42:08;7.00;;;3.53;;
21426;SDS011;10874;49.452;11.050;2024-02-21T02:44:35;8.37;;;3.73;;
21426;SDS011;10874;49.452;11.050;2024-02-21T02:47:01;11.23;;;3.80;;
21426;SDS011;10874;49.452;11.050;2024-02-21T02:49:28;11.93;;;3.90;;
21426;SDS011;10874;49.452;11.050;2024-02-21T02:51:55;8.93;;;3.73;;
21426;SDS011;10874;49.452;11.050;2024-02-21T02:54:22;9.13;;;3.80;;
21426;SDS011;10874;49.452;11.050;2024-02-21T02:56:49;10.13;;;4.23;;
21426;SDS011;10874;49.452;11.050;2024-02-21T02:59:16;9.67;;;3.50;;
21426;SDS011;10874;49.452;11.050;2024-02-21T03:01:43;9.13;;;3.47;;
21426;SDS011;10874;49.452;11.050;2024-02-21T03:04:09;8.80;;;4.27;;
21426;SDS011;10874;49.452;11.050;2024-02-21T03:06:36;8.23;;;3.57;;
21426;SDS011;10874;49.452;11.050;2024-02-21T03:09:03;6.57;;;3.87;;
21426;SDS011;10874;49.452;11.050;2024-02-21T03:11:35;9.37;;;3.77;;
21426;SDS011;10874;49.452;11.050;2024-02-21T03:14:02;8.77;;;3.73;;
21426;SDS011;10874;49.452;11.050;2024-02-21T03:16:28;8.10;;;4.00;;
21426;SDS011;10874;49.452;11.050;2024-02-21T03:18:55;9.50;;;3.57;;
21426;SDS011;10874;49.452;11.050;2024-02-21T03:21:22;9.43;;;4.43;;
21426;SDS011;10874;49.452;11.050;2024-02-21T03:23:49;11.13;;;3.67;;
21426;SDS011;10874;49.452;11.050;2024-02-21T03:26:15;8.73;;;3.90;;
21426;SDS011;10874;49.452;11.050;2024-02-21T03:28:44;11.03;;;3.13;;
21426;SDS011;10874;49.452;11.050;2024-02-21T03:31:13;7.23;;;3.90;;
21426;SDS011;10874;49.452;11.050;2024-02-21T03:33:42;7.83;;;3.60;;
21426;SDS011;10874;49.452;11.050;2024-02-21T03:36:14;8.13;;;3.50;;
21426;SDS011;10874;49.452;11.050;2024-02-21T03:38:42;6.77;;;3.80;;
21426;SDS011;10874;49.452;11.050;2024-02-21T03:41:09;6.67;;;3.10;;
21426;SDS011;10874;49.452;11.050;2024-02-21T03:43:37;7.80;;;3.67;;
21426;SDS011;10874;49.452;11.050;2024-02-21T03:46:04;9.13;;;3.53;;
21426;SDS011;10874;49.452;11.050;2024-02-21T03:48:30;6.67;;;3.13;;
21426;SDS011;10874;49.452;11.050;2024-02-21T03:50:57;9.90;;;3.67;;
21426;SDS011;10874;49.452;11.050;2024-02-21T03:53:24;6.87;;;3.60;;
21426;SDS011;10874;49.452;11.050;2024-02-21T03:55:51;7.67;;;4.10;;
21426;SDS011;10874;49.452;11.050;2024-02-21T03:58:18;6.60;;;3.60;;
21426;SDS011;10874;49.452;11.050;2024-02-21T04:00:44;7.93;;;3.30;;
21426;SDS011;10874;49.452;11.050;2024-02-21T04:03:11;8.70;;;3.60;;
21426;SDS011;10874;49.452;11.050;2024-02-21T04:05:38;7.63;;;3.50;;
21426;SDS011;10874;49.452;11.050;2024-02-21T04:08:05;10.30;;;4.17;;
21426;SDS011;10874;49.452;11.050;2024-02-21T04:10:32;8.70;;;3.40;;
21426;SDS011;10874;49.452;11.050;2024-02-21T04:12:59;9.67;;;3.80;;
21426;SDS011;10874;49.452;11.050;2024-02-21T04:15:26;9.93;;;3.43;;
21426;SDS011;10874;49.452;11.050;2024-02-21T04:17:53;8.83;;;3.80;;
21426;SDS011;10874;49.452;11.050;2024-02-21T04:20:20;10.80;;;3.50;;
21426;SDS011;10874;49.452;11.050;2024-02-21T04:22:47;9.17;;;4.30;;
21426;SDS011;10874;49.452;11.050;2024-02-21T04:25:14;8.27;;;3.60;;
21426;SDS011;10874;49.452;11.050;2024-02-21T04:27:41;9.77;;;3.63;;
21426;SDS011;10874;49.452;11.050;2024-02-21T04:30:08;6.50;;;3.23;;
21426;SDS011;10874;49.452;11.050;2024-02-21T04:32:36;8.47;;;3.40;;
21426;SDS011;10874;49.452;11.050;2024-02-21T04:35:03;8.83;;;3.33;;
21426;SDS011;10874;49.452;11.050;2024-02-21T04:37:30;6.13;;;3.37;;
21426;SDS011;10874;49.452;11.050;2024-02-21T04:39:57;4.67;;;2.90;;
21426;SDS011;10874;49.452;11.050;2024-02-21T04:42:24;8.53;;;3.73;;
21426;SDS011;10874;49.452;11.050;2024-02-21T04:44:51;6.83;;;3.20;;
21426;SDS011;10874;49.452;11.050;2024-02-21T04:47:18;8.30;;;3.57;;
21426;SDS011;10874;49.452;11.050;2024-02-21T04:49:46;7.17;;;3.70;;
21426;SDS011;10874;49.452;11.050;2024-02-21T04:52:13;8.57;;;3.93;;
21426;SDS011;10874;49.452;11.050;2024-02-21T04:54:40;10.07;;;3.23;;
21426;SDS011;10874;49.452;11.050;2024-02-21T04:57:07;8.30;;;3.63;;
21426;SDS011;10874;49.452;11.050;2024-02-21T04:59:34;6.27;;;2.87;;
21426;SDS011;10874;49.452;11.050;2024-02-21T05:02:02;8.00;;;3.73;;
21426;SDS011;10874;49.452;11.050;2024-02-21T05:04:28;7.93;;;3.40;;
21426;SDS011;10874;49.452;11.050;2024-02-21T05:06:56;6.90;;;3.10;;
21426;SDS011;10874;49.452;11.050;2024-02-21T05:09:22;5.50;;;2.83;;
21426;SDS011;10874;49.452;11.050;2024-02-21T05:11:49;8.77;;;3.13;;
21426;SDS011;10874;49.452;11.050;2024-02-21T05:14:16;6.87;;;3.10;;
21426;SDS011;10874;49.452;11.050;2024-02-21T05:16:43;7.33;;;3.33;;
21426;SDS011;10874;49.452;11.050;2024-02-21T05:19:10;7.17;;;3.27;;
21426;SDS011;10874;49.452;11.050;2024-02-21T05:21:37;8.70;;;3.27;;
21426;SDS011;10874;49.452;11.050;2024-02-21T05:24:03;7.17;;;3.33;;
21426;SDS011;10874;49.452;11.050;2024-02-21T05:26:30;8.47;;;3.83;;
21426;SDS011;10874;49.452;11.050;2024-02-21T05:28:57;10.30;;;3.40;;
21426;SDS011;10874;49.452;11.050;2024-02-21T05:31:26;7.63;;;3.70;;
21426;SDS011;10874;49.452;11.050;2024-02-21T05:33:53;8.60;;;3.93;;
21426;SDS011;10874;49.452;11.050;2024-02-21T05:36:19;8.50;;;3.93;;
21426;SDS011;10874;49.452;11.050;2024-02-21T05:38:46;8.30;;;3.10;;
21426;SDS011;10874;49.452;11.050;2024-02-21T05:41:13;9.13;;;3.77;;
21426;SDS011;10874;49.452;11.050;2024-02-21T05:43:40;7.87;;;3.57;;
21426;SDS011;10874;49.452;11.050;2024-02-21T05:46:07;13.57;;;4.23;;
21426;SDS011;10874;49.452;11.050;2024-02-21T05:48:33;8.73;;;3.30;;
21426;SDS011;10874;49.452;11.050;2024-02-21T05:51:05;8.93;;;3.67;;
21426;SDS011;10874;49.452;11.050;2024-02-21T05:53:32;10.53;;;4.00;;
21426;SDS011;10874;49.452;11.050;2024-02-21T05:56:01;6.60;;;3.30;;
21426;SDS011;10874;49.452;11.050;2024-02-21T05:58:30;8.47;;;3.13;;
21426;SDS011;10874;49.452;11.050;2024-02-21T06:00:58;8.43;;;4.07;;
21426;SDS011;10874;49.452;11.050;2024-02-21T06:03:24;6.33;;;3.47;;
21426;SDS011;10874;49.452;11.050;2024-02-21T06:05:51;9.00;;;3.30;;
21426;SDS011;10874;49.452;11.050;2024-02-21T06:08:18;9.17;;;3.60;;
21426;SDS011;10874;49.452;11.050;2024-02-21T06:10:45;6.37;;;3.50;;
21426;SDS011;10874;49.452;11.050;2024-02-21T06:13:12;34.00;;;10.17;;
21426;SDS011;10874;49.452;11.050;2024-02-21T06:15:39;9.77;;;5.03;;
21426;SDS011;10874;49.452;11.050;2024-02-21T06:18:06;7.97;;;3.40;;
21426;SDS011;10874;49.452;11.050;2024-02-21T06:20:33;11.47;;;3.80;;
21426;SDS011;10874;49.452;11.050;2024-02-21T06:23:02;7.47;;;3.40;;
21426;SDS011;10874;49.452;11.050;2024-02-21T06:25:29;4.73;;;3.23;;
21426;SDS011;10874;49.452;11.050;2024-02-21T06:27:56;4.93;;;2.87;;
21426;SDS011;10874;49.452;11.050;2024-02-21T06:30:23;7.77;;;3.63;;
21426;SDS011;10874;49.452;11.050;2024-02-21T06:32:49;8.70;;;3.50;;
21426;SDS011;10874;49.452;11.050;2024-02-21T06:35:16;8.77;;;3.40;;
21426;SDS011;10874;49.452;11.050;2024-02-21T06:37:43;8.27;;;4.03;;
21426;SDS011;10874;49.452;11.050;2024-02-21T06:40:12;8.20;;;3.63;;
21426;SDS011;10874;49.452;11.050;2024-02-21T06:42:38;7.17;;;4.10;;
21426;SDS011;10874;49.452;11.050;2024-02-21T06:45:05;7.50;;;3.97;;
21426;SDS011;10874;49.452;11.050;2024-02-21T06:47:32;9.73;;;3.70;;
21426;SDS011;10874;49.452;11.050;2024-02-21T06:49:59;8.17;;;3.50;;
21426;SDS011;10874;49.452;11.050;2024-02-21T06:52:26;5.80;;;3.63;;
21426;SDS011;10874;49.452;11.050;2024-02-21T06:54:53;13.23;;;4.27;;
21426;SDS011;10874;49.452;11.050;2024-02-21T06:57:20;10.13;;;3.63;;
21426;SDS011;10874;49.452;11.050;2024-02-21T06:59:46;9.20;;;3.83;;
21426;SDS011;10874;49.452;11.050;2024-02-21T07:02:13;6.80;;;3.83;;
21426;SDS011;10874;49.452;11.050;2024-02-21T07:04:40;7.67;;;3.60;;
21426;SDS011;10874;49.452;11.050;2024-02-21T07:07:07;10.20;;;4.00;;
21426;SDS011;10874;49.452;11.050;2024-02-21T07:09:34;6.83;;;3.50;;
21426;SDS011;10874;49.452;11.050;2024-02-21T07:12:01;7.00;;;3.80;;
21426;SDS011;10874;49.452;11.050;2024-02-21T07:14:29;10.03;;;3.90;;
21426;SDS011;10874;49.452;11.050;2024-02-21T07:16:56;8.43;;;4.23;;
21426;SDS011;10874;49.452;11.050;2024-02-21T07:19:23;10.17;;;5.10;;
21426;SDS011;10874;49.452;11.050;2024-02-21T07:21:51;11.30;;;4.73;;
21426;SDS011;10874;49.452;11.050;2024-02-21T07:24:17;11.10;;;5.47;;
21426;SDS011;10874;49.452;11.050;2024-02-21T07:26:44;8.23;;;4.97;;
21426;SDS011;10874;49.452;11.050;2024-02-21T07:29:11;12.10;;;4.63;;
21426;SDS011;10874;49.452;11.050;2024-02-21T07:31:38;8.43;;;4.20;;
21426;SDS011;10874;49.452;11.050;2024-02-21T07:34:05;7.53;;;4.43;;
21426;SDS011;10874;49.452;11.050;2024-02-21T07:36:32;11.90;;;4.43;;
21426;SDS011;10874;49.452;11.050;2024-02-21T07:38:59;9.70;;;4.17;;
21426;SDS011;10874;49.452;11.050;2024-02-21T07:41:26;8.13;;;3.63;;
21426;SDS011;10874;49.452;11.050;2024-02-21T07:43:53;7.63;;;3.90;;
21426;SDS011;10874;49.452;11.050;2024-02-21T07:46:20;10.13;;;3.93;;
21426;SDS011;10874;49.452;11.050;2024-02-21T07:48:47;9.27;;;3.57;;
21426;SDS011;10874;49.452;11.050;2024-02-21T07:51:14;7.23;;;5.00;;
21426;SDS011;10874;49.452;11.050;2024-02-21T07:53:44;11.43;;;6.80;;
21426;SDS011;10874;49.452;11.050;2024-02-21T07:56:12;13.07;;;6.60;;
21426;SDS011;10874;49.452;11.050;2024-02-21T07:58:38;8.37;;;4.60;;
21426;SDS011;10874;49.452;11.050;2024-02-21T08:01:05;8.97;;;3.80;;
21426;SDS011;10874;49.452;11.050;2024-02-21T08:03:32;9.57;;;3.70;;
21426;SDS011;10874;49.452;11.050;2024-02-21T08:05:59;6.03;;;3.30;;
21426;SDS011;10874;49.452;11.050;2024-02-21T08:08:26;5.93;;;3.13;;
21426;SDS011;10874;49.452;11.050;2024-02-21T08:10:53;8.23;;;3.53;;
21426;SDS011;10874;49.452;11.050;2024-02-21T08:13:20;5.40;;;2.87;;
21426;SDS011;10874;49.452;11.050;2024-02-21T08:15:47;6.43;;;3.17;;
21426;SDS011;10874;49.452;11.050;2024-02-21T08:18:14;7.43;;;3.17;;
21426;SDS011;10874;49.452;11.050;2024-02-21T08:20:41;6.97;;;2.90;;
21426;SDS011;10874;49.452;11.050;2024-02-21T08:23:08;8.17;;;3.73;;
21426;SDS011;10874;49.452;11.050;2024-02-21T08:25:35;5.53;;;3.23;;
21426;SDS011;10874;49.452;11.050;2024-02-21T08:28:01;5.90;;;3.23;;
21426;SDS011;10874;49.452;11.050;2024-02-21T08:30:28;6.43;;;3.10;;
21426;SDS011;10874;49.452;11.050;2024-02-21T08:32:55;6.37;;;3.10;;
21426;SDS011;10874;49.452;11.050;2024-02-21T08:35:22;6.33;;;3.07;;
21426;SDS011;10874;49.452;11.050;2024-02-21T08:37:49;8.23;;;3.00;;
21426;SDS011;10874;49.452;11.050;2024-02-21T08:40:16;6.63;;;3.00;;
21426;SDS011;10874;49.452;11.050;2024-02-21T08:42:48;6.60;;;2.67;;
21426;SDS011;10874;49.452;11.050;2024-02-21T08:45:15;9.53;;;3.10;;
21426;SDS011;10874;49.452;11.050;2024-02-21T08:47:42;9.83;;;3.10;;
21426;SDS011;10874;49.452;11.050;2024-02-21T08:50:09;5.50;;;3.07;;
21426;SDS011;10874;49.452;11.050;2024-02-21T08:52:52;6.87;;;2.90;;
21426;SDS011;10874;49.452;11.050;2024-02-21T08:55:19;6.90;;;2.77;;
21426;SDS011;10874;49.452;11.050;2024-02-21T08:57:46;5.77;;;2.77;;
21426;SDS011;10874;49.452;11.050;2024-02-21T09:00:13;5.20;;;2.73;;
21426;SDS011;10874;49.452;11.050;2024-02-21T09:02:40;7.80;;;3.23;;
21426;SDS011;10874;49.452;11.050;2024-02-21T09:05:09;7.27;;;3.07;;
21426;SDS011;10874;49.452;11.050;2024-02-21T09:07:36;12.90;;;3.37;;
21426;SDS011;10874;49.452;11.050;2024-02-21T09:10:03;4.80;;;2.90;;
21426;SDS011;10874;49.452;11.050;2024-02-21T09:12:30;5.93;;;2.70;;
21426;SDS011;10874;49.452;11.050;2024-02-21T09:14:57;10.33;;;3.30;;
21426;SDS011;10874;49.452;11.050;2024-02-21T09:17:26;5.37;;;3.10;;
21426;SDS011;10874;49.452;11.050;2024-02-21T09:19:55;9.27;;;3.07;;
21426;SDS011;10874;49.452;11.050;2024-02-21T09:22:25;6.93;;;2.97;;
21426;SDS011;10874;49.452;11.050;2024-02-21T09:24:52;8.20;;;2.83;;
21426;SDS011;10874;49.452;11.050;2024-02-21T09:27:19;7.23;;;3.40;;
21426;SDS011;10874;49.452;11.050;2024-02-21T09:29:46;6.07;;;2.70;;
21426;SDS011;10874;49.452;11.050;2024-02-21T09:32:13;5.73;;;2.77;;
21426;SDS011;10874;49.452;11.050;2024-02-21T09:34:40;7.60;;;3.07;;
21426;SDS011;10874;49.452;11.050;2024-02-21T09:37:07;6.53;;;2.70;;
21426;SDS011;10874;49.452;11.050;2024-02-21T09:39:34;5.60;;;2.63;;
21426;SDS011;10874;49.452;11.050;2024-02-21T09:42:07;5.90;;;2.30;;
21426;SDS011;10874;49.452;11.050;2024-02-21T09:44:37;5.00;;;2.37;;
21426;SDS011;10874;49.452;11.050;2024-02-21T09:47:10;6.57;;;2.80;;
21426;SDS011;10874;49.452;11.050;2024-02-21T09:49:41;6.77;;;3.10;;
21426;SDS011;10874;49.452;11.050;2024-02-21T09:52:09;10.13;;;2.53;;
21426;SDS011;10874;49.452;11.050;2024-02-21T09:54:36;7.27;;;2.80;;
21426;SDS011;10874;49.452;11.050;2024-02-21T09:57:03;7.33;;;3.07;;
21426;SDS011;10874;49.452;11.050;2024-02-21T09:59:32;10.07;;;2.50;;
21426;SDS011;10874;49.452;11.050;2024-02-21T10:01:59;5.83;;;2.47;;
21426;SDS011;10874;49.452;11.050;2024-02-21T10:04:29;4.33;;;2.17;;
21426;SDS011;10874;49.452;11.050;2024-02-21T10:06:59;5.77;;;2.13;;
21426;SDS011;10874;49.452;11.050;2024-02-21T10:09:26;9.10;;;2.80;;
21426;SDS011;10874;49.452;11.050;2024-02-21T10:12:09;7.13;;;2.80;;
21426;SDS011;10874;49.452;11.050;2024-02-21T10:14:38;8.47;;;2.57;;
21426;SDS011;10874;49.452;11.050;2024-02-21T10:17:05;4.27;;;2.33;;
21426;SDS011;10874;49.452;11.050;2024-02-21T10:19:36;8.20;;;2.80;;
21426;SDS011;10874;49.452;11.050;2024-02-21T10:22:04;5.53;;;2.50;;
21426;SDS011;10874;49.452;11.050;2024-02-21T10:24:31;6.90;;;2.20;;
21426;SDS011;10874;49.452;11.050;2024-02-21T10:27:08;7.37;;;2.43;;
21426;SDS011;10874;49.452;11.050;2024-02-21T10:29:37;6.10;;;3.07;;
21426;SDS011;10874;49.452;11.050;2024-02-21T10:32:07;6.73;;;2.50;;
21426;SDS011;10874;49.452;11.050;2024-02-21T10:34:35;5.13;;;2.20;;
21426;SDS011;10874;49.452;11.050;2024-02-21T10:39:33;8.17;;;2.53;;
21426;SDS011;10874;49.452;11.050;2024-02-21T10:42:01;6.03;;;2.70;;
21426;SDS011;10874;49.452;11.050;2024-02-21T10:44:33;6.50;;;2.40;;
21426;SDS011;10874;49.452;11.050;2024-02-21T10:47:00;7.27;;;2.90;;
21426;SDS011;10874;49.452;11.050;2024-02-21T10:49:30;7.20;;;2.60;;
21426;SDS011;10874;49.452;11.050;2024-02-21T10:52:10;7.93;;;2.93;;
21426;SDS011;10874;49.452;11.050;2024-02-21T10:54:55;4.73;;;2.57;;
21426;SDS011;10874;49.452;11.050;2024-02-21T10:57:23;7.80;;;2.67;;
21426;SDS011;10874;49.452;11.050;2024-02-21T10:59:51;6.03;;;3.00;;
21426;SDS011;10874;49.452;11.050;2024-02-21T11:02:19;5.50;;;2.70;;
21426;SDS011;10874;49.452;11.050;2024-02-21T11:04:46;3.93;;;1.90;;
21426;SDS011;10874;49.452;11.050;2024-02-21T11:07:14;6.83;;;2.50;;
21426;SDS011;10874;49.452;11.050;2024-02-21T11:09:50;6.07;;;2.70;;
21426;SDS011;10874;49.452;11.050;2024-02-21T11:12:19;6.50;;;2.30;;
21426;SDS011;10874;49.452;11.050;2024-02-21T11:14:46;4.13;;;1.90;;
21426;SDS011;10874;49.452;11.050;2024-02-21T11:17:17;4.90;;;2.67;;
21426;SDS011;10874;49.452;11.050;2024-02-21T11:19:44;3.50;;;2.67;;
21426;SDS011;10874;49.452;11.050;2024-02-21T11:22:18;5.90;;;2.50;;
21426;SDS011;10874;49.452;11.050;2024-02-21T11:24:45;4.93;;;2.60;;
21426;SDS011;10874;49.452;11.050;2024-02-21T11:27:12;4.70;;;2.67;;
21426;SDS011;10874;49.452;11.050;2024-02-21T11:29:49;5.00;;;2.37;;
21426;SDS011;10874;49.452;11.050;2024-02-21T11:32:18;3.80;;;2.13;;
21426;SDS011;10874;49.452;11.050;2024-02-21T11:37:23;6.80;;;2.83;;
21426;SDS011;10874;49.452;11.050;2024-02-21T11:39:51;7.87;;;2.50;;
21426;SDS011;10874;49.452;11.050;2024-02-21T11:42:19;6.53;;;2.93;;
21426;SDS011;10874;49.452;11.050;2024-02-21T11:44:46;9.13;;;3.43;;
21426;SDS011;10874;49.452;11.050;2024-02-21T11:47:14;9.67;;;3.30;;
21426;SDS011;10874;49.452;11.050;2024-02-21T11:49:47;6.43;;;2.30;;
21426;SDS011;10874;49.452;11.050;2024-02-21T11:52:16;7.70;;;2.67;;
21426;SDS011;10874;49.452;11.050;2024-02-21T11:54:45;4.73;;;2.37;;
21426;SDS011;10874;49.452;11.050;2024-02-21T11:57:12;6.77;;;2.40;;
21426;SDS011;10874;49.452;11.050;2024-02-21T11:59:39;5.93;;;2.77;;
21426;SDS011;10874;49.452;11.050;2024-02-21T12:02:06;8.73;;;3.47;;
21426;SDS011;10874;49.452;11.050;2024-02-21T12:04:35;8.77;;;3.10;;
21426;SDS011;10874;49.452;11.050;2024-02-21T12:07:02;7.37;;;2.93;;
21426;SDS011;10874;49.452;11.050;2024-02-21T12:09:31;6.77;;;2.60;;
21426;SDS011;10874;49.452;11.050;2024-02-21T12:12:02;5.47;;;2.33;;
21426;SDS011;10874;49.452;11.050;2024-02-21T12:14:30;5.80;;;2.67;;
21426;SDS011;10874;49.452;11.050;2024-02-21T12:16:57;5.77;;;2.17;;
21426;SDS011;10874;49.452;11.050;2024-02-21T12:19:24;5.97;;;2.53;;
21426;SDS011;10874;49.452;11.050;2024-02-21T12:21:51;5.30;;;2.20;;
21426;SDS011;10874;49.452;11.050;2024-02-21T12:24:25;6.60;;;2.10;;
21426;SDS011;10874;49.452;11.050;2024-02-21T12:26:52;6.83;;;2.50;;
21426;SDS011;10874;49.452;11.050;2024-02-21T12:29:22;6.70;;;2.23;;
21426;SDS011;10874;49.452;11.050;2024-02-21T12:31:49;5.37;;;2.40;;
21426;SDS011;10874;49.452;11.050;2024-02-21T12:34:16;5.20;;;2.20;;
21426;SDS011;10874;49.452;11.050;2024-02-21T12:36:56;4.67;;;2.37;;
21426;SDS011;10874;49.452;11.050;2024-02-21T12:39:23;4.63;;;2.10;;
21426;SDS011;10874;49.452;11.050;2024-02-21T12:41:50;4.33;;;2.27;;
21426;SDS011;10874;49.452;11.050;2024-02-21T12:44:16;3.90;;;1.83;;
21426;SDS011;10874;49.452;11.050;2024-02-21T12:46:44;3.87;;;2.10;;
21426;SDS011;10874;49.452;11.050;2024-02-21T12:49:11;5.43;;;2.60;;
21426;SDS011;10874;49.452;11.050;2024-02-21T12:51:38;7.27;;;2.53;;
21426;SDS011;10874;49.452;11.050;2024-02-21T12:54:06;7.07;;;2.13;;
21426;SDS011;10874;49.452;11.050;2024-02-21T12:56:32;12.83;;;3.17;;
21426;SDS011;10874;49.452;11.050;2024-02-21T12:58:59;4.23;;;2.63;;
21426;SDS011;10874;49.452;11.050;2024-02-21T13:01:27;4.70;;;1.90;;
21426;SDS011;10874;49.452;11.050;2024-02-21T13:03:54;3.93;;;1.70;;
21426;SDS011;10874;49.452;11.050;2024-02-21T13:06:22;6.73;;;2.27;;
21426;SDS011;10874;49.452;11.050;2024-02-21T13:08:50;7.37;;;2.03;;
21426;SDS011;10874;49.452;11.050;2024-02-21T13:11:17;6.13;;;2.70;;
21426;SDS011;10874;49.452;11.050;2024-02-21T13:13:44;8.50;;;2.40;;
21426;SDS011;10874;49.452;11.050;2024-02-21T13:16:11;4.03;;;2.10;;
21426;SDS011;10874;49.452;11.050;2024-02-21T13:18:38;3.90;;;1.63;;
21426;SDS011;10874;49.452;11.050;2024-02-21T13:21:06;6.37;;;2.30;;
21426;SDS011;10874;49.452;11.050;2024-02-21T13:23:33;4.87;;;2.00;;
21426;SDS011;10874;49.452;11.050;2024-02-21T13:26:00;4.13;;;2.00;;
21426;SDS011;10874;49.452;11.050;2024-02-21T13:28:27;4.93;;;2.10;;
21426;SDS011;10874;49.452;11.050;2024-02-21T13:30:54;3.47;;;1.83;;
21426;SDS011;10874;49.452;11.050;2024-02-21T13:33:21;4.00;;;1.70;;
21426;SDS011;10874;49.452;11.050;2024-02-21T13:35:48;4.87;;;1.87;;
21426;SDS011;10874;49.452;11.050;2024-02-21T13:38:14;4.93;;;1.60;;
21426;SDS011;10874;49.452;11.050;2024-02-21T13:40:41;8.57;;;1.93;;
21426;SDS011;10874;49.452;11.050;2024-02-21T13:43:09;3.97;;;1.73;;
21426;SDS011;10874;49.452;11.050;2024-02-21T13:45:37;4.17;;;1.80;;
21426;SDS011;10874;49.452;11.050;2024-02-21T13:48:04;2.90;;;1.60;;
21426;SDS011;10874;49.452;11.050;2024-02-21T13:50:33;2.77;;;1.50;;
21426;SDS011;10874;49.452;11.050;2024-02-21T13:53:08;6.53;;;3.23;;
21426;SDS011;10874;49.452;11.050;2024-02-21T13:55:36;5.03;;;2.30;;
21426;SDS011;10874;49.452;11.050;2024-02-21T13:58:02;3.83;;;1.60;;
21426;SDS011;10874;49.452;11.050;2024-02-21T14:00:30;2.57;;;1.43;;
21426;SDS011;10874;49.452;11.050;2024-02-21T14:02:56;4.27;;;1.30;;
21426;SDS011;10874;49.452;11.050;2024-02-21T14:05:25;4.27;;;1.87;;
21426;SDS011;10874;49.452;11.050;2024-02-21T14:07:51;2.13;;;1.60;;
21426;SDS011;10874;49.452;11.050;2024-02-21T14:10:21;2.97;;;1.73;;
21426;SDS011;10874;49.452;11.050;2024-02-21T14:12:48;2.13;;;1.60;;
21426;SDS011;10874;49.452;11.050;2024-02-21T14:15:15;1.83;;;1.40;;
21426;SDS011;10874;49.452;11.050;2024-02-21T14:17:43;5.77;;;1.70;;
21426;SDS011;10874;49.452;11.050;2024-02-21T14:20:10;3.50;;;1.50;;
21426;SDS011;10874;49.452;11.050;2024-02-21T14:22:41;3.07;;;1.50;;
21426;SDS011;10874;49.452;11.050;2024-02-21T14:25:07;3.80;;;1.73;;
21426;SDS011;10874;49.452;11.050;2024-02-21T14:27:34;5.00;;;1.40;;
21426;SDS011;10874;49.452;11.050;2024-02-21T14:30:03;3.70;;;1.73;;
21426;SDS011;10874;49.452;11.050;2024-02-21T14:32:30;4.00;;;1.80;;
21426;SDS011;10874;49.452;11.050;2024-02-21T14:34:57;3.33;;;1.47;;
21426;SDS011;10874;49.452;11.050;2024-02-21T14:37:26;2.80;;;1.50;;
21426;SDS011;10874;49.452;11.050;2024-02-21T14:39:53;6.07;;;2.23;;